Time;durP1;ratioP1;P1;durP2;ratioP2;P2;SDS_P1;SDS_P2;PMS_P1;PMS_P2;Temp;Humidity;BMP_temperature;BMP_pressure;BME280_temperature;BME280_humidity;BME280_pressure;Samples;Min_cycle;Max_cycle;Signal;HPM_P1;HPM_P2
2021/11/13 00:00:04;;;;;;;;;;;5.20;99.90;5.60;99851.00;;;;346166;28;82316;-87
2021/11/13 00:00:21;;;;;;;;;;;5.20;99.90;5.80;99843.00;;;;344203;28;91082;-86
2021/11/13 00:00:34;;;;;;;;;;;5.20;99.90;5.80;99847.00;;;;346011;28;83432;-86
2021/11/13 00:00:46;;;;;;;;;;;5.20;99.90;5.70;99844.00;;;;344319;28;90135;-86
2021/11/13 00:00:57;;;;;;;;;;;5.20;99.90;5.70;99853.00;;;;347441;27;83474;-86
2021/11/13 00:01:10;;;;;;;;;;;5.20;99.90;5.60;99845.00;;;;345730;28;88913;-86
2021/11/13 00:01:22;;;;;;;;;;;5.20;99.90;5.50;99857.00;;;;344762;28;83442;-86
2021/11/13 00:01:33;;;;;;;;;;;5.20;99.90;5.70;99849.00;;;;346651;27;92255;-85
2021/11/13 00:01:45;;;;;;;;;;;5.20;99.90;5.70;99849.00;;;;346024;28;83430;-86
2021/11/13 00:01:57;;;;;;;;;;;5.20;99.90;5.70;99848.00;;;;345597;28;92038;-86
2021/11/13 00:02:09;;;;;;;;;;;5.20;99.90;5.80;99845.00;;;;344805;28;82347;-86
2021/11/13 00:02:20;;;;;;;;;;;5.20;99.90;5.90;99849.00;;;;348145;27;92338;-86
2021/11/13 00:02:32;;;;;;;;;;;5.20;99.90;5.90;99849.00;;;;347759;27;82439;-86
2021/11/13 00:02:44;;;;;;;;;;;5.20;99.90;5.80;99843.00;;;;347003;28;92000;-86
2021/11/13 00:02:56;;;;;;;;;;;5.20;99.90;5.70;99852.00;;;;347209;28;83527;-86
2021/11/13 00:03:08;;;;;;;;;;;5.20;99.90;5.70;99854.00;;;;345626;28;91842;-86
2021/11/13 00:03:19;;;;;;;;;;;5.20;99.90;5.80;99845.00;;;;346206;28;83184;-87
2021/11/13 00:03:31;;;;;;;;;;;5.20;99.90;5.80;99851.00;;;;344165;28;90166;-86
2021/11/13 00:03:43;;;;;;;;;;;5.30;99.90;5.80;99852.00;;;;347462;28;83330;-87
2021/11/13 00:03:55;;;;;;;;;;;5.30;99.90;5.80;99857.00;;;;345664;28;90845;-87
2021/11/13 00:04:06;;;;;;;;;;;5.30;99.90;5.80;99845.00;;;;347543;28;82506;-86
2021/11/13 00:04:18;;;;;;;;;;;5.20;99.90;5.80;99849.00;;;;346985;28;89697;-87
2021/11/13 00:04:30;;;;;;;;;;;5.20;99.90;5.80;99847.00;;;;344772;28;83244;-86
2021/11/13 00:04:41;;;;;;;;;;;5.30;99.90;5.70;99846.00;;;;345556;28;89351;-86
2021/11/13 00:04:54;;;;;;;;;;;5.30;99.90;5.70;99853.00;;;;344648;28;82588;-86
2021/11/13 00:05:06;;;;;;;;;;;5.30;99.90;5.70;99845.00;;;;344325;28;91909;-86
2021/11/13 00:05:18;;;;;;;;;;;5.30;99.90;5.80;99853.00;;;;344565;28;83324;-85
2021/11/13 00:05:30;;;;;;;;;;;5.30;99.90;5.80;99849.00;;;;345478;28;92506;-86
2021/11/13 00:05:42;;;;;;;;;;;5.30;99.90;5.70;99857.00;;;;347599;28;82383;-87
2021/11/13 00:05:54;;;;;;;;;;;5.30;99.90;5.80;99846.00;;;;347167;28;88876;-86
2021/11/13 00:06:06;;;;;;;;;;;5.30;99.90;5.80;99847.00;;;;346320;28;82455;-87
2021/11/13 00:06:17;;;;;;;;;;;5.30;99.90;5.70;99851.00;;;;344292;28;89330;-86
2021/11/13 00:06:29;;;;;;;;;;;5.30;99.90;5.70;99847.00;;;;346237;28;82347;-87
2021/11/13 00:06:41;;;;;;;;;;;5.30;99.90;5.60;99840.00;;;;344380;28;91581;-86
2021/11/13 00:06:53;;;;;;;;;;;5.20;99.90;5.50;99838.00;;;;346217;28;82465;-87
2021/11/13 00:07:04;;;;;;;;;;;5.20;99.90;5.50;99849.00;;;;347009;28;91782;-87
2021/11/13 00:07:17;;;;;;;;;;;5.20;99.90;5.50;99858.00;;;;344851;28;83317;-86
2021/11/13 00:07:29;;;;;;;;;;;5.20;99.90;5.60;99848.00;;;;344352;28;91070;-87
2021/11/13 00:07:40;;;;;;;;;;;5.20;99.90;5.50;99843.00;;;;346155;28;83358;-86
2021/11/13 00:07:52;;;;;;;;;;;5.30;99.90;5.70;99848.00;;;;345944;28;87656;-86
2021/11/13 00:08:04;;;;;;;;;;;5.20;99.90;5.80;99846.00;;;;347674;28;83307;-86
2021/11/13 00:08:16;;;;;;;;;;;5.30;99.90;5.70;99848.00;;;;344686;28;89669;-86
2021/11/13 00:08:28;;;;;;;;;;;5.30;99.90;5.60;99842.00;;;;346230;28;83209;-86
2021/11/13 00:08:40;;;;;;;;;;;5.20;99.90;5.70;99848.00;;;;348645;27;92299;-86
2021/11/13 00:08:51;;;;;;;;;;;5.20;99.90;5.80;99836.00;;;;349134;27;83368;-86
2021/11/13 00:09:04;;;;;;;;;;;5.20;99.90;5.80;99843.00;;;;345954;28;89814;-86
2021/11/13 00:09:16;;;;;;;;;;;5.20;99.90;5.80;99853.00;;;;345079;28;82301;-86
2021/11/13 00:09:28;;;;;;;;;;;5.20;99.90;5.60;99844.00;;;;345814;28;91471;-86
2021/11/13 00:09:40;;;;;;;;;;;5.30;99.90;5.50;99847.00;;;;346422;28;82469;-86
2021/11/13 00:09:51;;;;;;;;;;;5.30;99.90;5.60;99848.00;;;;345965;28;90211;-86
2021/11/13 00:10:04;;;;;;;;;;;5.20;99.90;5.70;99844.00;;;;347971;28;83284;-86
2021/11/13 00:10:16;;;;;;;;;;;5.20;99.90;5.60;99840.00;;;;347453;28;92452;-87
2021/11/13 00:10:28;;;;;;;;;;;5.30;99.90;5.50;99846.00;;;;346343;28;83322;-86
2021/11/13 00:10:40;;;;;;;;;;;5.20;99.90;5.60;99839.00;;;;344707;28;91210;-87
2021/11/13 00:10:52;;;;;;;;;;;5.30;99.90;5.60;99847.00;;;;347808;28;83232;-86
2021/11/13 00:11:04;;;;;;;;;;;5.30;99.90;5.60;99841.00;;;;346063;28;88261;-86
2021/11/13 00:11:16;;;;;;;;;;;5.30;99.90;5.60;99843.00;;;;346502;28;82505;-86
2021/11/13 00:11:27;;;;;;;;;;;5.20;99.90;5.70;99849.00;;;;346030;28;91763;-86
2021/11/13 00:11:39;;;;;;;;;;;5.30;99.90;5.60;99841.00;;;;347697;28;83305;-87
2021/11/13 00:11:51;;;;;;;;;;;5.20;99.90;5.50;99845.00;;;;346059;28;88844;-86
2021/11/13 00:12:03;;;;;;;;;;;5.20;99.90;5.40;99850.00;;;;345094;28;83514;-86
2021/11/13 00:12:15;;;;;;;;;;;5.20;99.90;5.40;99848.00;;;;345826;28;92306;-86
2021/11/13 00:12:27;;;;;;;;;;;5.20;99.90;5.40;99847.00;;;;346157;28;83238;-86
2021/11/13 00:12:39;;;;;;;;;;;5.20;99.90;5.60;99849.00;;;;344213;28;92123;-86
2021/11/13 00:12:51;;;;;;;;;;;5.20;99.90;5.70;99845.00;;;;346347;28;82619;-86
2021/11/13 00:13:05;;;;;;;;;;;5.20;99.90;5.70;99849.00;;;;347287;28;88686;-86
2021/11/13 00:13:19;;;;;;;;;;;5.20;99.90;5.80;99848.00;;;;345155;28;83175;-86
2021/11/13 00:13:31;;;;;;;;;;;5.20;99.90;5.70;99841.00;;;;347435;28;88773;-86
2021/11/13 00:13:42;;;;;;;;;;;5.20;99.90;5.60;99850.00;;;;344987;28;82561;-86
2021/11/13 00:14:00;;;;;;;;;;;5.20;99.90;5.70;99840.00;;;;347404;28;91413;-87
2021/11/13 00:14:16;;;;;;;;;;;5.20;99.90;5.80;99842.00;;;;346533;28;82352;-86
2021/11/13 00:14:29;;;;;;;;;;;5.20;99.90;5.80;99841.00;;;;344615;28;90066;-86
2021/11/13 00:14:44;;;;;;;;;;;5.20;99.90;5.80;99842.00;;;;346201;28;83724;-86
2021/11/13 00:14:56;;;;;;;;;;;5.20;99.90;5.90;99838.00;;;;345964;28;87771;-86
2021/11/13 00:15:08;;;;;;;;;;;5.30;99.90;5.80;99843.00;;;;346512;28;83249;-86
2021/11/13 00:15:21;;;;;;;;;;;5.20;99.90;5.70;99838.00;;;;344635;28;90346;-86
2021/11/13 00:15:33;;;;;;;;;;;5.30;99.90;5.80;99837.00;;;;347896;28;82354;-86
2021/11/13 00:15:45;;;;;;;;;;;5.20;99.90;5.60;99836.00;;;;344520;28;90089;-87
2021/11/13 00:15:56;;;;;;;;;;;5.20;99.90;5.60;99838.00;;;;343733;28;83414;-86
2021/11/13 00:16:08;;;;;;;;;;;5.20;99.90;5.70;99837.00;;;;346166;28;88028;-86
2021/11/13 00:16:20;;;;;;;;;;;5.20;99.90;5.80;99837.00;;;;346582;28;82468;-86
2021/11/13 00:16:33;;;;;;;;;;;5.20;99.90;5.90;99841.00;;;;346079;28;89880;-86
2021/11/13 00:16:44;;;;;;;;;;;5.20;99.90;5.90;99837.00;;;;346469;28;83579;-86
2021/11/13 00:16:56;;;;;;;;;;;5.30;99.90;5.90;99834.00;;;;347335;28;90419;-87
2021/11/13 00:17:08;;;;;;;;;;;5.30;99.90;5.90;99837.00;;;;347802;28;82400;-86
2021/11/13 00:17:19;;;;;;;;;;;5.30;99.90;5.90;99845.00;;;;344597;28;91379;-86
2021/11/13 00:17:31;;;;;;;;;;;5.30;99.90;5.90;99827.00;;;;346249;28;83377;-86
2021/11/13 00:17:43;;;;;;;;;;;5.30;99.90;6.00;99830.00;;;;347363;28;90262;-86
2021/11/13 00:17:55;;;;;;;;;;;5.30;99.90;6.00;99830.00;;;;346778;28;82356;-86
2021/11/13 00:18:07;;;;;;;;;;;5.30;99.90;5.90;99833.00;;;;346301;28;90595;-86
2021/11/13 00:18:19;;;;;;;;;;;5.30;99.90;5.80;99840.00;;;;349865;27;82347;-86
2021/11/13 00:18:35;;;;;;;;;;;5.30;99.90;5.80;99830.00;;;;346481;28;90049;-86
2021/11/13 00:18:47;;;;;;;;;;;5.30;99.90;5.70;99832.00;;;;348369;28;82283;-86
2021/11/13 00:18:59;;;;;;;;;;;5.30;99.90;5.80;99828.00;;;;350017;27;92226;-87
2021/11/13 00:19:11;;;;;;;;;;;5.30;99.90;5.80;99821.00;;;;349574;27;82414;-86
2021/11/13 00:19:23;;;;;;;;;;;5.30;99.90;5.80;99825.00;;;;349005;27;91760;-86
2021/11/13 00:19:35;;;;;;;;;;;5.30;99.90;5.80;99826.00;;;;348030;28;83207;-86
2021/11/13 00:19:46;;;;;;;;;;;5.30;99.90;5.60;99826.00;;;;348914;27;90620;-86
2021/11/13 00:19:58;;;;;;;;;;;5.30;99.90;5.60;99823.00;;;;345082;28;83313;-86
2021/11/13 00:20:10;;;;;;;;;;;5.30;99.90;5.70;99831.00;;;;347432;28;90441;-86
2021/11/13 00:20:22;;;;;;;;;;;5.30;99.90;5.80;99823.00;;;;346578;28;83471;-86
2021/11/13 00:20:34;;;;;;;;;;;5.30;99.90;5.90;99821.00;;;;344340;28;92663;-86
2021/11/13 00:20:47;;;;;;;;;;;5.30;99.90;5.90;99821.00;;;;349254;27;82423;-86
2021/11/13 00:20:59;;;;;;;;;;;5.30;99.90;5.90;99826.00;;;;348924;27;87736;-86
2021/11/13 00:21:14;;;;;;;;;;;5.30;99.90;5.80;99826.00;;;;347919;28;83432;-86
2021/11/13 00:21:28;;;;;;;;;;;5.30;99.90;5.80;99820.00;;;;347489;28;90863;-86
2021/11/13 00:21:39;;;;;;;;;;;5.30;99.90;5.80;99825.00;;;;349055;27;82441;-86
2021/11/13 00:21:51;;;;;;;;;;;5.30;99.90;5.70;99826.00;;;;347536;28;88780;-86
2021/11/13 00:22:03;;;;;;;;;;;5.30;99.90;5.70;99819.00;;;;347937;28;83413;-86
2021/11/13 00:22:15;;;;;;;;;;;5.30;99.90;5.70;99820.00;;;;347506;28;91283;-86
2021/11/13 00:22:28;;;;;;;;;;;5.30;99.90;5.80;99821.00;;;;348048;28;83343;-86
2021/11/13 00:22:40;;;;;;;;;;;5.30;99.90;5.90;99823.00;;;;346171;28;92967;-86
2021/11/13 00:22:52;;;;;;;;;;;5.30;99.90;6.00;99811.00;;;;345197;28;82508;-86
2021/11/13 00:23:03;;;;;;;;;;;5.30;99.90;6.00;99823.00;;;;347585;28;90518;-86
2021/11/13 00:23:15;;;;;;;;;;;5.30;99.90;5.90;99812.00;;;;346557;28;82689;-86
2021/11/13 00:23:27;;;;;;;;;;;5.40;99.90;5.80;99819.00;;;;346042;28;92623;-86
2021/11/13 00:23:39;;;;;;;;;;;5.40;99.90;5.80;99811.00;;;;347726;28;83482;-86
2021/11/13 00:23:51;;;;;;;;;;;5.40;99.90;5.90;99808.00;;;;344801;28;90291;-86
2021/11/13 00:24:03;;;;;;;;;;;5.30;99.90;5.90;99811.00;;;;347921;28;82536;-86
2021/11/13 00:24:14;;;;;;;;;;;5.40;99.90;5.80;99823.00;;;;345888;28;90084;-87
2021/11/13 00:24:26;;;;;;;;;;;5.40;99.90;5.70;99817.00;;;;346733;28;82383;-86
2021/11/13 00:24:38;;;;;;;;;;;5.30;99.90;5.80;99817.00;;;;344769;28;90103;-86
2021/11/13 00:24:50;;;;;;;;;;;5.40;99.90;5.80;99807.00;;;;346423;28;82458;-86
2021/11/13 00:25:03;;;;;;;;;;;5.40;99.90;5.80;99812.00;;;;347579;28;88733;-86
2021/11/13 00:25:14;;;;;;;;;;;5.30;99.90;5.80;99811.00;;;;347965;28;82457;-86
2021/11/13 00:25:26;;;;;;;;;;;5.30;99.90;5.70;99824.00;;;;347614;28;91288;-87
2021/11/13 00:25:38;;;;;;;;;;;5.40;99.90;5.70;99819.00;;;;347802;28;83351;-87
2021/11/13 00:25:50;;;;;;;;;;;5.30;99.90;5.80;99810.00;;;;347372;28;89534;-87
2021/11/13 00:26:02;;;;;;;;;;;5.30;99.90;5.80;99808.00;;;;349398;27;82293;-85
2021/11/13 00:26:14;;;;;;;;;;;5.30;99.90;5.80;99811.00;;;;346038;28;90157;-86
2021/11/13 00:26:25;;;;;;;;;;;5.30;99.90;5.80;99810.00;;;;346743;28;83278;-86
2021/11/13 00:26:37;;;;;;;;;;;5.30;99.90;5.80;99811.00;;;;347195;28;89773;-86
2021/11/13 00:26:50;;;;;;;;;;;5.30;99.90;5.80;99810.00;;;;347643;28;83252;-86
2021/11/13 00:27:04;;;;;;;;;;;5.40;99.90;5.90;99797.00;;;;346042;28;90329;-86
2021/11/13 00:27:16;;;;;;;;;;;5.30;99.90;5.80;99804.00;;;;347787;28;83354;-87
2021/11/13 00:27:27;;;;;;;;;;;5.30;99.90;5.90;99813.00;;;;347421;28;92205;-86
2021/11/13 00:27:39;;;;;;;;;;;5.30;99.90;5.80;99808.00;;;;346482;28;83376;-87
2021/11/13 00:27:51;;;;;;;;;;;5.30;99.90;5.80;99813.00;;;;348930;27;89037;-86
2021/11/13 00:28:03;;;;;;;;;;;5.30;99.90;5.70;99810.00;;;;348060;28;82497;-87
2021/11/13 00:28:15;;;;;;;;;;;5.30;99.90;5.60;99806.00;;;;344417;28;91589;-86
2021/11/13 00:28:26;;;;;;;;;;;5.30;99.90;5.60;99809.00;;;;346541;28;83447;-86
2021/11/13 00:28:38;;;;;;;;;;;5.30;99.90;5.80;99810.00;;;;345991;28;91616;-86
2021/11/13 00:28:51;;;;;;;;;;;5.30;99.90;5.70;99811.00;;;;346387;28;83850;-87
2021/11/13 00:29:03;;;;;;;;;;;5.30;99.90;5.70;99806.00;;;;346865;28;91976;-86
2021/11/13 00:29:14;;;;;;;;;;;5.30;99.90;5.70;99805.00;;;;347967;28;83312;-87
2021/11/13 00:29:26;;;;;;;;;;;5.30;99.90;5.80;99817.00;;;;345907;28;87985;-87
2021/11/13 00:29:38;;;;;;;;;;;5.30;99.90;5.70;99810.00;;;;347561;28;82393;-86
2021/11/13 00:29:50;;;;;;;;;;;5.30;99.90;5.70;99807.00;;;;345977;28;91634;-86
2021/11/13 00:30:03;;;;;;;;;;;5.30;99.90;5.80;99811.00;;;;346383;28;83409;-86
2021/11/13 00:30:15;;;;;;;;;;;5.30;99.90;5.80;99808.00;;;;347057;28;92407;-87
2021/11/13 00:30:27;;;;;;;;;;;5.30;99.90;5.80;99810.00;;;;349238;27;82565;-86
2021/11/13 00:30:41;;;;;;;;;;;5.30;99.90;5.80;99808.00;;;;347376;28;92450;-86
2021/11/13 00:30:53;;;;;;;;;;;5.30;99.90;5.70;99813.00;;;;346348;28;83383;-86
2021/11/13 00:31:05;;;;;;;;;;;5.30;99.90;5.70;99817.00;;;;347737;28;89304;-86
2021/11/13 00:31:16;;;;;;;;;;;5.30;99.90;5.60;99810.00;;;;347131;28;82253;-86
2021/11/13 00:31:28;;;;;;;;;;;5.30;99.90;5.60;99810.00;;;;350008;27;91401;-86
2021/11/13 00:31:40;;;;;;;;;;;5.30;99.90;5.60;99802.00;;;;350692;27;82390;-85
2021/11/13 00:31:54;;;;;;;;;;;5.30;99.90;5.70;99811.00;;;;346269;28;90510;-87
2021/11/13 00:32:06;;;;;;;;;;;5.30;99.90;5.70;99809.00;;;;349339;28;82516;-86
2021/11/13 00:32:18;;;;;;;;;;;5.30;99.90;5.80;99805.00;;;;347050;28;90297;-86
2021/11/13 00:32:32;;;;;;;;;;;5.30;99.90;5.80;99802.00;;;;348255;28;82401;-87
2021/11/13 00:32:44;;;;;;;;;;;5.30;99.90;5.80;99808.00;;;;348912;28;91264;-86
2021/11/13 00:32:55;;;;;;;;;;;5.30;99.90;5.80;99811.00;;;;347854;28;83099;-86
2021/11/13 00:33:08;;;;;;;;;;;5.30;99.90;5.80;99799.00;;;;346119;28;90617;-86
2021/11/13 00:33:19;;;;;;;;;;;5.30;99.90;5.80;99804.00;;;;348429;28;82370;-84
2021/11/13 00:33:31;;;;;;;;;;;5.30;99.90;5.90;99802.00;;;;346125;28;90524;-86
2021/11/13 00:33:43;;;;;;;;;;;5.30;99.90;5.70;99806.00;;;;344697;28;83919;-86
2021/11/13 00:33:55;;;;;;;;;;;5.30;99.90;5.70;99802.00;;;;345476;28;92008;-86
2021/11/13 00:34:06;;;;;;;;;;;5.30;99.90;5.70;99800.00;;;;343250;28;83288;-87
2021/11/13 00:34:18;;;;;;;;;;;5.30;99.90;5.60;99806.00;;;;345507;28;90883;-87
2021/11/13 00:34:30;;;;;;;;;;;5.30;99.90;5.50;99807.00;;;;347523;28;83175;-86
2021/11/13 00:34:42;;;;;;;;;;;5.30;99.90;5.60;99799.00;;;;346933;28;91511;-86
2021/11/13 00:34:54;;;;;;;;;;;5.30;99.90;5.60;99808.00;;;;347342;27;82537;-86
2021/11/13 00:35:06;;;;;;;;;;;5.20;99.90;5.70;99801.00;;;;346943;28;92261;-86
2021/11/13 00:35:18;;;;;;;;;;;5.30;99.90;5.70;99809.00;;;;344769;28;82336;-87
2021/11/13 00:35:30;;;;;;;;;;;5.20;99.90;5.70;99799.00;;;;345249;28;91657;-86
2021/11/13 00:35:42;;;;;;;;;;;5.30;99.90;5.70;99799.00;;;;347137;27;83297;-86
2021/11/13 00:35:53;;;;;;;;;;;5.30;99.90;5.60;99794.00;;;;346805;28;91095;-87
2021/11/13 00:36:05;;;;;;;;;;;5.30;99.90;5.70;99802.00;;;;347448;28;83299;-86
2021/11/13 00:36:17;;;;;;;;;;;5.20;99.90;5.80;99798.00;;;;346983;27;87595;-87
2021/11/13 00:36:29;;;;;;;;;;;5.30;99.90;5.60;99799.00;;;;347529;28;82232;-86
2021/11/13 00:36:40;;;;;;;;;;;5.30;99.90;5.50;99788.00;;;;344145;28;92586;-86
2021/11/13 00:36:52;;;;;;;;;;;5.30;99.90;5.50;99796.00;;;;347386;28;83251;-86
2021/11/13 00:37:04;;;;;;;;;;;5.20;99.90;5.60;99793.00;;;;346963;28;91354;-86
2021/11/13 00:37:16;;;;;;;;;;;5.20;99.90;5.70;99797.00;;;;346008;28;83325;-86
2021/11/13 00:37:28;;;;;;;;;;;5.30;99.90;5.80;99793.00;;;;346972;28;92159;-86
2021/11/13 00:37:40;;;;;;;;;;;5.30;99.90;5.70;99799.00;;;;347438;28;83311;-86
2021/11/13 00:37:52;;;;;;;;;;;5.30;99.90;5.60;99796.00;;;;343013;28;88068;-86
2021/11/13 00:38:04;;;;;;;;;;;5.20;99.90;5.60;99795.00;;;;345941;28;82559;-86
2021/11/13 00:38:16;;;;;;;;;;;5.30;99.90;5.60;99799.00;;;;345393;28;91025;-87
2021/11/13 00:38:27;;;;;;;;;;;5.20;99.90;5.50;99797.00;;;;345074;28;82496;-86
2021/11/13 00:38:40;;;;;;;;;;;5.20;99.90;5.50;99796.00;;;;346373;28;89170;-86
2021/11/13 00:38:51;;;;;;;;;;;5.20;99.90;5.60;99796.00;;;;351072;27;83092;-86
2021/11/13 00:39:03;;;;;;;;;;;5.20;99.90;5.70;99799.00;;;;348786;28;90671;-86
2021/11/13 00:39:15;;;;;;;;;;;5.20;99.90;5.70;99794.00;;;;349320;28;82230;-86
2021/11/13 00:39:27;;;;;;;;;;;5.20;99.90;5.60;99799.00;;;;348647;28;90115;-86
2021/11/13 00:39:39;;;;;;;;;;;5.20;99.90;5.70;99791.00;;;;347770;28;82598;-86
2021/11/13 00:39:51;;;;;;;;;;;5.20;99.90;5.70;99803.00;;;;349334;27;87890;-86
2021/11/13 00:40:03;;;;;;;;;;;5.20;99.90;5.70;99799.00;;;;350712;27;82578;-86
2021/11/13 00:40:15;;;;;;;;;;;5.20;99.90;5.70;99800.00;;;;346095;28;90119;-86
2021/11/13 00:40:27;;;;;;;;;;;5.20;99.90;5.80;99803.00;;;;347913;28;82394;-85
2021/11/13 00:40:39;;;;;;;;;;;5.20;99.90;5.80;99798.00;;;;347422;28;91275;-85
2021/11/13 00:40:51;;;;;;;;;;;5.20;99.90;5.70;99794.00;;;;349334;28;82306;-86
2021/11/13 00:41:03;;;;;;;;;;;5.20;99.90;5.60;99791.00;;;;350313;27;90345;-86
2021/11/13 00:41:15;;;;;;;;;;;5.20;99.90;5.60;99793.00;;;;349589;28;82338;-85
2021/11/13 00:41:26;;;;;;;;;;;5.20;99.90;5.50;99799.00;;;;350041;27;90110;-86
2021/11/13 00:41:38;;;;;;;;;;;5.20;99.90;5.50;99794.00;;;;349219;28;83099;-86
2021/11/13 00:41:50;;;;;;;;;;;5.20;99.90;5.40;99798.00;;;;347576;28;90202;-86
2021/11/13 00:42:02;;;;;;;;;;;5.20;99.90;5.40;99804.00;;;;348189;28;82483;-86
2021/11/13 00:42:14;;;;;;;;;;;5.20;99.90;5.60;99793.00;;;;346197;28;90851;-86
2021/11/13 00:42:26;;;;;;;;;;;5.20;99.90;5.60;99801.00;;;;350397;27;82396;-86
2021/11/13 00:42:37;;;;;;;;;;;5.20;99.90;5.70;99813.00;;;;348945;27;90278;-87
2021/11/13 00:42:49;;;;;;;;;;;5.10;99.90;5.60;99801.00;;;;347996;28;82222;-84
2021/11/13 00:43:01;;;;;;;;;;;5.10;99.90;5.50;99803.00;;;;347277;28;91342;-86
2021/11/13 00:43:13;;;;;;;;;;;5.10;99.90;5.40;99800.00;;;;352275;27;82707;-85
2021/11/13 00:43:27;;;;;;;;;;;5.10;99.90;5.40;99803.00;;;;348763;28;90243;-84
2021/11/13 00:43:38;;;;;;;;;;;5.10;99.90;5.30;99794.00;;;;349322;27;82306;-84
2021/11/13 00:43:50;;;;;;;;;;;5.10;99.90;5.40;99802.00;;;;347556;28;90368;-86
2021/11/13 00:44:03;;;;;;;;;;;5.10;99.90;5.30;99802.00;;;;350749;27;82390;-86
2021/11/13 00:44:14;;;;;;;;;;;5.10;99.90;5.30;99800.00;;;;347610;28;90610;-86
2021/11/13 00:44:26;;;;;;;;;;;5.10;99.90;5.30;99812.00;;;;349155;28;82645;-86
2021/11/13 00:44:38;;;;;;;;;;;5.10;99.90;5.30;99802.00;;;;348888;27;91955;-85
2021/11/13 00:44:50;;;;;;;;;;;5.10;99.90;5.50;99806.00;;;;348039;28;82556;-86
2021/11/13 00:45:03;;;;;;;;;;;5.10;99.90;5.60;99802.00;;;;347193;28;90540;-86
2021/11/13 00:45:14;;;;;;;;;;;5.10;99.90;5.60;99798.00;;;;347858;28;82225;-85
2021/11/13 00:45:26;;;;;;;;;;;5.10;99.90;5.60;99798.00;;;;349143;28;87932;-85
2021/11/13 00:45:38;;;;;;;;;;;5.10;99.90;5.70;99795.00;;;;349396;28;82173;-85
2021/11/13 00:45:50;;;;;;;;;;;5.10;99.90;5.50;99800.00;;;;348975;28;90364;-85
2021/11/13 00:46:01;;;;;;;;;;;5.10;99.90;5.60;99807.00;;;;346433;28;82250;-86
2021/11/13 00:46:13;;;;;;;;;;;5.10;99.90;5.70;99802.00;;;;349291;28;87493;-85
2021/11/13 00:46:25;;;;;;;;;;;5.10;99.90;5.70;99799.00;;;;347645;28;82334;-86
2021/11/13 00:46:37;;;;;;;;;;;5.10;99.90;5.70;99807.00;;;;348983;28;89027;-86
2021/11/13 00:46:48;;;;;;;;;;;5.20;99.90;5.60;99796.00;;;;348004;28;82352;-86
2021/11/13 00:47:01;;;;;;;;;;;5.20;99.90;5.50;99791.00;;;;348787;28;90340;-86
2021/11/13 00:47:12;;;;;;;;;;;5.10;99.90;5.40;99788.00;;;;346559;28;82418;-86
2021/11/13 00:47:24;;;;;;;;;;;5.10;99.90;5.30;99795.00;;;;348469;28;90737;-86
2021/11/13 00:47:36;;;;;;;;;;;5.10;99.90;5.50;99797.00;;;;347707;28;82514;-86
2021/11/13 00:47:48;;;;;;;;;;;5.10;99.90;5.40;99798.00;;;;350057;27;90324;-86
2021/11/13 00:48:00;;;;;;;;;;;5.10;99.90;5.50;99798.00;;;;349178;27;82223;-86
2021/11/13 00:48:11;;;;;;;;;;;5.10;99.90;5.60;99796.00;;;;347440;28;90331;-86
2021/11/13 00:48:23;;;;;;;;;;;5.10;99.90;5.50;99795.00;;;;350271;27;82490;-86
2021/11/13 00:48:35;;;;;;;;;;;5.10;99.90;5.50;99790.00;;;;349001;28;90744;-87
2021/11/13 00:48:46;;;;;;;;;;;5.10;99.90;5.40;99791.00;;;;346807;28;82319;-86
2021/11/13 00:48:58;;;;;;;;;;;5.10;99.90;5.50;99791.00;;;;348912;27;91509;-86
2021/11/13 00:49:10;;;;;;;;;;;5.10;99.90;5.50;99788.00;;;;346590;28;82322;-85
2021/11/13 00:49:22;;;;;;;;;;;5.10;99.90;5.50;99807.00;;;;346213;28;90228;-85
2021/11/13 00:49:35;;;;;;;;;;;5.10;99.90;5.50;99793.00;;;;347745;28;82444;-86
2021/11/13 00:49:46;;;;;;;;;;;5.10;99.90;5.50;99789.00;;;;344879;28;89833;-86
2021/11/13 00:49:58;;;;;;;;;;;5.10;99.90;5.50;99794.00;;;;348036;28;82362;-85
2021/11/13 00:50:12;;;;;;;;;;;5.10;99.90;5.50;99790.00;;;;347826;28;87781;-86
2021/11/13 00:50:24;;;;;;;;;;;5.10;99.90;5.50;99790.00;;;;348276;28;82591;-86
2021/11/13 00:50:36;;;;;;;;;;;5.10;99.90;5.50;99794.00;;;;350116;27;92007;-86
2021/11/13 00:50:48;;;;;;;;;;;5.10;99.90;5.50;99789.00;;;;346574;28;82302;-86
2021/11/13 00:51:00;;;;;;;;;;;5.10;99.90;5.50;99792.00;;;;347486;28;90281;-86
2021/11/13 00:51:11;;;;;;;;;;;5.10;99.90;5.50;99796.00;;;;349295;28;82377;-84
2021/11/13 00:51:23;;;;;;;;;;;5.10;99.90;5.50;99791.00;;;;348089;28;90390;-86
2021/11/13 00:51:35;;;;;;;;;;;5.10;99.90;5.50;99796.00;;;;349175;28;82600;-86
2021/11/13 00:51:47;;;;;;;;;;;5.10;99.90;5.40;99794.00;;;;347478;28;92352;-86
2021/11/13 00:51:59;;;;;;;;;;;5.10;99.90;5.30;99800.00;;;;351286;27;82340;-86
2021/11/13 00:52:10;;;;;;;;;;;5.00;99.90;5.40;99788.00;;;;351675;27;90693;-86
2021/11/13 00:52:22;;;;;;;;;;;5.10;99.90;5.40;99789.00;;;;350734;27;82981;-84
2021/11/13 00:52:34;;;;;;;;;;;5.00;99.90;5.40;99794.00;;;;347438;28;92081;-85
2021/11/13 00:52:45;;;;;;;;;;;5.10;99.90;5.30;99792.00;;;;349424;28;82346;-86
2021/11/13 00:52:57;;;;;;;;;;;5.00;99.90;5.30;99793.00;;;;348545;27;91119;-86
2021/11/13 00:53:09;;;;;;;;;;;5.00;99.90;5.40;99789.00;;;;348532;28;82552;-86
2021/11/13 00:53:21;;;;;;;;;;;5.00;99.90;5.40;99791.00;;;;349226;27;90846;-86
2021/11/13 00:53:33;;;;;;;;;;;5.00;99.90;5.30;99792.00;;;;345967;28;83157;-86
2021/11/13 00:53:44;;;;;;;;;;;5.00;99.90;5.30;99788.00;;;;348142;28;90461;-86
2021/11/13 00:53:56;;;;;;;;;;;5.00;99.90;5.40;99798.00;;;;346883;28;82544;-87
2021/11/13 00:54:08;;;;;;;;;;;5.00;99.90;5.30;99796.00;;;;346748;28;91584;-87
2021/11/13 00:54:20;;;;;;;;;;;5.00;99.90;5.30;99791.00;;;;347378;28;82501;-88
2021/11/13 00:54:33;;;;;;;;;;;5.00;99.90;5.30;99792.00;;;;347701;28;92259;-87
2021/11/13 00:54:45;;;;;;;;;;;5.00;99.90;5.30;99790.00;;;;348601;28;83325;-87
2021/11/13 00:54:57;;;;;;;;;;;4.90;99.90;5.30;99802.00;;;;350910;27;90962;-87
2021/11/13 00:55:09;;;;;;;;;;;5.00;99.90;5.20;99795.00;;;;348584;28;82290;-87
2021/11/13 00:55:21;;;;;;;;;;;5.00;99.90;5.40;99796.00;;;;349410;27;91671;-87
2021/11/13 00:55:33;;;;;;;;;;;5.00;99.90;5.40;99793.00;;;;347128;28;82271;-88
2021/11/13 00:55:45;;;;;;;;;;;5.00;99.90;5.40;99792.00;;;;346769;28;91472;-88
2021/11/13 00:55:56;;;;;;;;;;;4.90;99.90;5.30;99793.00;;;;348594;28;82430;-87
2021/11/13 00:56:08;;;;;;;;;;;5.00;99.90;5.30;99794.00;;;;349137;27;90667;-88
2021/11/13 00:56:20;;;;;;;;;;;4.90;99.90;5.30;99791.00;;;;347363;27;82745;-87
2021/11/13 00:56:31;;;;;;;;;;;4.90;99.90;5.30;99794.00;;;;345419;28;92554;-88
2021/11/13 00:56:43;;;;;;;;;;;4.90;99.90;5.30;99796.00;;;;346074;28;83454;-88
2021/11/13 00:56:55;;;;;;;;;;;4.90;99.90;5.40;99789.00;;;;346788;28;88611;-88
2021/11/13 00:57:09;;;;;;;;;;;4.90;99.90;5.30;99790.00;;;;345994;28;83436;-88
2021/11/13 00:57:21;;;;;;;;;;;4.90;99.90;5.50;99789.00;;;;348184;27;90187;-87
2021/11/13 00:57:33;;;;;;;;;;;4.90;99.90;5.50;99788.00;;;;347398;27;82426;-88
2021/11/13 00:57:44;;;;;;;;;;;4.90;99.90;5.60;99792.00;;;;346933;28;92255;-87
2021/11/13 00:57:57;;;;;;;;;;;5.00;99.90;5.60;99799.00;;;;347457;28;83220;-87
2021/11/13 00:58:09;;;;;;;;;;;5.00;99.90;5.60;99793.00;;;;350871;27;91877;-87
2021/11/13 00:58:20;;;;;;;;;;;5.00;99.90;5.60;99791.00;;;;347299;28;82462;-86
2021/11/13 00:58:34;;;;;;;;;;;5.00;99.90;5.70;99790.00;;;;348251;27;92653;-87
2021/11/13 00:58:47;;;;;;;;;;;5.00;99.90;5.60;99786.00;;;;347419;28;82362;-87
2021/11/13 00:58:59;;;;;;;;;;;5.00;99.90;5.60;99786.00;;;;345548;28;91410;-87
2021/11/13 00:59:10;;;;;;;;;;;5.00;99.90;5.50;99776.00;;;;344577;28;83358;-87
2021/11/13 00:59:22;;;;;;;;;;;5.00;99.90;5.60;99781.00;;;;346117;28;89517;-88
2021/11/13 00:59:35;;;;;;;;;;;5.00;99.90;5.70;99785.00;;;;348004;27;82375;-87
2021/11/13 00:59:47;;;;;;;;;;;5.00;99.90;5.70;99779.00;;;;346945;28;91615;-87
2021/11/13 00:59:59;;;;;;;;;;;5.10;99.90;5.80;99784.00;;;;345985;28;83322;-88
2021/11/13 01:00:13;;;;;;;;;;;5.00;99.90;5.80;99790.00;;;;346973;28;88663;-87
2021/11/13 01:00:25;;;;;;;;;;;5.10;99.90;5.70;99788.00;;;;345564;28;83368;-87
2021/11/13 01:00:37;;;;;;;;;;;5.10;99.90;5.70;99791.00;;;;345171;28;92190;-88
2021/11/13 01:00:49;;;;;;;;;;;5.10;99.90;5.60;99784.00;;;;348623;27;83532;-88
2021/11/13 01:01:01;;;;;;;;;;;5.10;99.90;5.60;99788.00;;;;346909;28;91757;-87
2021/11/13 01:01:13;;;;;;;;;;;5.10;99.90;5.60;99788.00;;;;346073;28;83260;-88